createdAt,value
2019-02-07T00:02:17.869Z,29.13
2019-02-07T00:04:51.459Z,26.77
2019-02-07T00:07:25.269Z,26.77
2019-02-07T00:09:59.058Z,28.40
2019-02-07T00:12:32.912Z,28.10
2019-02-07T00:15:06.790Z,26.47
2019-02-07T00:17:40.457Z,23.03
2019-02-07T00:20:15.477Z,27.07
2019-02-07T00:22:49.068Z,24.83
2019-02-07T00:25:22.812Z,22.97
2019-02-07T00:27:56.636Z,24.03
2019-02-07T00:30:30.444Z,23.07
2019-02-07T00:33:04.325Z,27.00
2019-02-07T00:35:38.064Z,22.10
2019-02-07T00:38:11.733Z,23.20
2019-02-07T00:40:45.457Z,20.67
2019-02-07T00:43:19.149Z,29.77
2019-02-07T00:45:52.724Z,29.30
2019-02-07T00:48:26.453Z,24.33
2019-02-07T00:51:00.260Z,27.30
2019-02-07T00:53:33.992Z,26.67
2019-02-07T00:56:07.766Z,27.07
2019-02-07T00:58:41.501Z,25.00
2019-02-07T01:01:15.988Z,27.10
2019-02-07T01:03:50.625Z,26.23
2019-02-07T01:06:25.153Z,24.97
2019-02-07T01:08:58.874Z,23.97
2019-02-07T01:11:32.728Z,21.47
2019-02-07T01:14:07.268Z,29.97
2019-02-07T01:16:41.024Z,27.93
2019-02-07T01:19:14.705Z,28.57
2019-02-07T01:21:48.456Z,28.80
2019-02-07T01:24:22.184Z,23.23
2019-02-07T01:26:56.814Z,27.67
2019-02-07T01:29:30.551Z,25.87
2019-02-07T01:32:04.372Z,31.17
2019-02-07T01:34:38.241Z,25.83
2019-02-07T01:37:11.920Z,25.97
2019-02-07T01:39:45.777Z,26.73
2019-02-07T01:42:20.268Z,28.47
2019-02-07T01:44:54.036Z,24.30
2019-02-07T01:47:27.916Z,24.57
2019-02-07T01:50:02.610Z,25.27
2019-02-07T01:52:36.363Z,22.87
2019-02-07T01:55:10.110Z,27.03
2019-02-07T01:57:43.877Z,29.13
2019-02-07T02:00:17.454Z,23.47
2019-02-07T02:02:51.278Z,24.57
2019-02-07T02:05:25.169Z,27.87
2019-02-07T02:07:59.669Z,25.57
2019-02-07T02:10:33.368Z,26.17
2019-02-07T02:13:07.101Z,23.07
2019-02-07T02:15:41.008Z,28.77
2019-02-07T02:18:15.616Z,21.17
2019-02-07T02:20:49.299Z,29.23
2019-02-07T02:23:23.064Z,21.83
2019-02-07T02:25:56.916Z,28.63
2019-02-07T02:28:30.684Z,25.87
2019-02-07T02:31:04.541Z,20.87
2019-02-07T02:33:38.144Z,22.13
2019-02-07T02:36:12.045Z,24.43
2019-02-07T02:38:46.480Z,21.87
2019-02-07T02:41:20.213Z,29.43
2019-02-07T02:43:53.909Z,24.47
2019-02-07T02:46:28.496Z,28.20
2019-02-07T02:49:02.191Z,24.97
2019-02-07T02:51:35.964Z,30.90
2019-02-07T02:54:09.821Z,29.13
2019-02-07T02:56:43.552Z,20.50
2019-02-07T02:59:17.255Z,27.43
2019-02-07T03:01:51.857Z,22.87
2019-02-07T03:04:26.377Z,23.87
2019-02-07T03:07:00.091Z,25.97
2019-02-07T03:09:34.709Z,22.80
2019-02-07T03:12:09.320Z,23.10
2019-02-07T03:14:43.132Z,29.53
2019-02-07T03:17:17.053Z,23.63
2019-02-07T03:19:51.037Z,22.07
2019-02-07T03:22:24.813Z,23.33
2019-02-07T03:24:58.592Z,23.10
2019-02-07T03:27:33.222Z,23.67
2019-02-07T03:30:08.115Z,20.27
2019-02-07T03:32:41.814Z,28.40
2019-02-07T03:35:15.616Z,21.37
2019-02-07T03:37:49.697Z,23.43
2019-02-07T03:40:23.972Z,22.03
2019-02-07T03:42:57.899Z,19.60
2019-02-07T03:45:31.650Z,21.27
2019-02-07T03:48:06.391Z,20.20
2019-02-07T03:50:40.832Z,20.27
2019-02-07T03:53:14.942Z,20.13
2019-02-07T03:55:48.561Z,21.33
2019-02-07T03:58:22.269Z,22.03
2019-02-07T04:00:56.087Z,23.27
2019-02-07T04:03:29.834Z,20.47
2019-02-07T04:06:03.375Z,23.93
2019-02-07T04:08:37.242Z,22.03
2019-02-07T04:11:11.697Z,22.63
2019-02-07T04:13:45.789Z,26.17
2019-02-07T04:16:20.155Z,23.77
2019-02-07T04:18:54.616Z,31.20
2019-02-07T04:21:28.404Z,28.00
2019-02-07T04:24:02.249Z,26.30
2019-02-07T04:26:37.213Z,22.53
2019-02-07T04:29:10.885Z,31.30
2019-02-07T04:31:44.721Z,29.00
2019-02-07T04:34:18.900Z,22.10
2019-02-07T04:36:52.745Z,24.80
2019-02-07T04:39:26.765Z,27.47
2019-02-07T04:42:00.437Z,21.80
2019-02-07T04:44:34.363Z,26.17
2019-02-07T04:47:08.105Z,25.53
2019-02-07T04:49:41.897Z,24.73
2019-02-07T04:52:15.590Z,28.27
2019-02-07T04:54:50.156Z,28.03
2019-02-07T04:57:24.713Z,25.10
2019-02-07T04:59:58.433Z,30.53
2019-02-07T05:02:32.304Z,34.23
2019-02-07T05:05:06.774Z,29.70
2019-02-07T05:07:40.845Z,27.40
2019-02-07T05:10:14.444Z,28.43
2019-02-07T05:12:48.305Z,26.10
2019-02-07T05:15:23.303Z,27.40
2019-02-07T05:17:56.961Z,29.13
2019-02-07T05:20:30.824Z,24.40
2019-02-07T05:23:05.520Z,29.00
2019-02-07T05:25:40.092Z,26.30
2019-02-07T05:28:13.823Z,25.77
2019-02-07T05:30:47.660Z,25.77
2019-02-07T05:33:22.140Z,32.93
2019-02-07T05:35:56.808Z,25.60
2019-02-07T05:38:30.614Z,29.33
2019-02-07T05:41:05.237Z,28.50
2019-02-07T05:43:39.070Z,27.43
2019-02-07T05:46:12.757Z,31.93
2019-02-07T05:48:46.778Z,24.40
2019-02-07T05:51:20.469Z,26.43
2019-02-07T05:53:54.310Z,31.37
2019-02-07T05:56:28.181Z,26.60
2019-02-07T05:59:01.940Z,32.00
2019-02-07T06:01:35.673Z,29.07
2019-02-07T06:04:09.548Z,29.07
2019-02-07T06:06:43.227Z,32.37
2019-02-07T06:09:17.285Z,27.43
2019-02-07T06:11:52.043Z,26.03
2019-02-07T06:14:26.758Z,27.63
2019-02-07T06:17:02.678Z,28.57
2019-02-07T06:19:34.480Z,27.47
2019-02-07T06:22:09.021Z,25.73
2019-02-07T06:24:42.893Z,29.10
2019-02-07T06:27:17.225Z,34.23
2019-02-07T06:29:50.873Z,28.00
2019-02-07T06:32:24.582Z,22.67
2019-02-07T06:34:58.474Z,30.40
2019-02-07T06:37:32.200Z,23.87
2019-02-07T06:40:05.796Z,28.27
2019-02-07T06:42:39.576Z,24.07
2019-02-07T06:45:13.291Z,25.60
2019-02-07T06:47:47.317Z,26.37
2019-02-07T06:50:21.092Z,28.83
2019-02-07T06:52:55.022Z,28.93
2019-02-07T06:55:28.648Z,20.30
2019-02-07T06:58:02.479Z,31.17
2019-02-07T07:00:36.345Z,29.40
2019-02-07T07:03:10.212Z,24.13
2019-02-07T07:05:44.232Z,25.37
2019-02-07T07:08:17.904Z,22.00
2019-02-07T07:10:51.740Z,20.43
2019-02-07T07:13:25.576Z,24.93
2019-02-07T07:15:59.483Z,24.77
2019-02-07T07:18:33.981Z,26.83
2019-02-07T07:21:07.713Z,22.60
2019-02-07T07:23:41.522Z,29.17
2019-02-07T07:26:15.413Z,29.93
2019-02-07T07:28:49.009Z,26.70
2019-02-07T07:31:23.472Z,27.17
2019-02-07T07:33:57.366Z,24.57
2019-02-07T07:36:32.182Z,23.13
2019-02-07T07:39:05.857Z,28.30
2019-02-07T07:41:39.725Z,27.23
2019-02-07T07:44:14.389Z,25.50
2019-02-07T07:46:48.204Z,21.23
2019-02-07T07:49:22.820Z,23.57
2019-02-07T07:51:56.876Z,23.83
2019-02-07T07:54:30.697Z,32.30
2019-02-07T07:57:05.412Z,24.67
2019-02-07T07:59:39.121Z,22.60
2019-02-07T08:02:12.847Z,27.67
2019-02-07T08:04:46.481Z,24.03
2019-02-07T08:07:20.206Z,26.53
2019-02-07T08:09:53.825Z,20.73
2019-02-07T08:12:27.696Z,23.07
2019-02-07T08:15:01.769Z,22.30
2019-02-07T08:17:35.501Z,20.20
2019-02-07T08:20:10.104Z,28.03
2019-02-07T08:22:43.991Z,20.57
2019-02-07T08:25:17.748Z,19.70
2019-02-07T08:27:51.568Z,23.57
2019-02-07T08:30:36.258Z,24.10
2019-02-07T08:33:00.824Z,19.17
2019-02-07T08:35:35.276Z,17.93
2019-02-07T08:38:09.774Z,21.07
2019-02-07T08:40:43.601Z,19.40
2019-02-07T08:43:18.113Z,22.33
2019-02-07T08:45:51.924Z,21.90
2019-02-07T08:48:25.808Z,25.07
2019-02-07T08:50:59.470Z,22.20
2019-02-07T08:53:34.224Z,17.87
2019-02-07T08:56:08.223Z,19.27
2019-02-07T08:58:42.757Z,20.00
2019-02-07T09:01:16.500Z,20.87
2019-02-07T09:03:50.381Z,23.67
2019-02-07T09:06:24.128Z,19.77
2019-02-07T09:08:58.620Z,21.23
2019-02-07T09:11:32.654Z,22.73
2019-02-07T09:14:06.603Z,20.27
2019-02-07T09:16:40.321Z,19.27
2019-02-07T09:19:14.411Z,22.27
2019-02-07T09:21:48.132Z,19.93
2019-02-07T09:24:21.920Z,27.50
2019-02-07T09:26:56.380Z,24.40
2019-02-07T09:29:30.255Z,23.27
2019-02-07T09:32:03.812Z,24.60
2019-02-07T09:34:37.818Z,25.63
2019-02-07T09:37:11.749Z,24.27
2019-02-07T09:39:46.262Z,22.07
2019-02-07T09:42:20.768Z,26.87
2019-02-07T09:44:55.597Z,19.77
2019-02-07T09:47:30.016Z,20.27
2019-02-07T09:50:03.746Z,26.00
2019-02-07T09:52:37.704Z,24.90
2019-02-07T09:55:11.628Z,20.70
2019-02-07T09:57:45.509Z,19.83
2019-02-07T10:00:19.185Z,20.67
2019-02-07T10:02:53.665Z,23.13
2019-02-07T10:05:28.197Z,24.07
2019-02-07T10:08:02.090Z,25.60
2019-02-07T10:10:36.295Z,24.50
2019-02-07T10:13:10.013Z,21.23
2019-02-07T10:15:43.725Z,24.03
2019-02-07T10:18:18.249Z,22.43
2019-02-07T10:20:51.991Z,24.30
2019-02-07T10:23:26.412Z,25.90
2019-02-07T10:26:00.426Z,22.20
2019-02-07T10:28:35.001Z,21.33
2019-02-07T10:31:09.087Z,21.93
2019-02-07T10:33:42.776Z,27.20
2019-02-07T10:36:16.461Z,26.57
2019-02-07T10:38:50.308Z,24.47
2019-02-07T10:41:24.029Z,21.47
2019-02-07T10:43:59.086Z,22.70
2019-02-07T10:46:33.812Z,21.60
2019-02-07T10:49:08.405Z,22.43
2019-02-07T10:51:42.222Z,21.40
2019-02-07T10:54:15.975Z,22.80
2019-02-07T10:56:50.575Z,23.40
2019-02-07T10:59:24.444Z,23.77
2019-02-07T11:01:59.220Z,20.17
2019-02-07T11:04:33.004Z,23.53
2019-02-07T11:07:07.142Z,26.00
2019-02-07T11:09:41.157Z,26.03
2019-02-07T11:12:15.553Z,21.17
2019-02-07T11:14:49.633Z,23.90
2019-02-07T11:17:23.296Z,21.93
2019-02-07T11:19:58.089Z,25.80
2019-02-07T11:22:32.077Z,24.07
2019-02-07T11:25:05.984Z,20.20
2019-02-07T11:27:42.320Z,17.60
2019-02-07T11:30:13.281Z,22.13
2019-02-07T11:32:47.522Z,23.00
2019-02-07T11:35:21.248Z,18.73
2019-02-07T11:37:54.998Z,19.53
2019-02-07T11:40:28.836Z,22.63
2019-02-07T11:43:02.665Z,20.90
2019-02-07T11:45:36.992Z,19.60
2019-02-07T11:48:10.572Z,20.03
2019-02-07T11:50:44.332Z,22.87
2019-02-07T11:53:18.016Z,21.57
2019-02-07T11:55:52.545Z,22.70
2019-02-07T11:58:27.547Z,19.23
2019-02-07T12:01:00.962Z,19.30
2019-02-07T12:03:35.644Z,22.57
2019-02-07T12:06:09.591Z,21.37
2019-02-07T12:08:44.108Z,17.60
2019-02-07T12:11:18.045Z,19.97
2019-02-07T12:13:52.581Z,15.43
2019-02-07T12:16:26.374Z,19.20
2019-02-07T12:19:00.092Z,19.03
2019-02-07T12:21:34.257Z,21.47
2019-02-07T12:24:07.970Z,20.30
2019-02-07T12:26:41.865Z,15.80
2019-02-07T12:29:15.608Z,23.00
2019-02-07T12:31:50.128Z,20.80
2019-02-07T12:34:23.798Z,21.00
2019-02-07T12:36:57.657Z,18.53
2019-02-07T12:39:31.778Z,17.17
2019-02-07T12:42:05.457Z,19.13
2019-02-07T12:44:39.926Z,20.63
2019-02-07T12:47:13.590Z,17.33
2019-02-07T12:49:47.321Z,17.93
2019-02-07T12:52:20.932Z,17.93
2019-02-07T12:54:55.029Z,18.53
2019-02-07T12:57:29.517Z,17.73
2019-02-07T13:00:03.964Z,24.07
2019-02-07T13:02:37.677Z,19.17
2019-02-07T13:05:12.185Z,19.30
2019-02-07T13:07:46.700Z,19.53
2019-02-07T13:10:20.406Z,19.83
2019-02-07T13:12:54.573Z,15.87
2019-02-07T13:15:28.373Z,19.20
2019-02-07T13:18:02.182Z,16.70
2019-02-07T13:20:35.997Z,21.43
2019-02-07T13:23:10.657Z,18.33
2019-02-07T13:25:44.545Z,17.47
2019-02-07T13:28:23.946Z,16.10
2019-02-07T13:30:58.066Z,17.80
2019-02-07T13:33:31.804Z,18.63
2019-02-07T13:36:05.784Z,16.90
2019-02-07T13:38:39.497Z,14.97
2019-02-07T13:41:13.167Z,17.47
2019-02-07T13:43:47.074Z,20.17
2019-02-07T13:46:20.885Z,17.10
2019-02-07T13:48:54.926Z,13.73
2019-02-07T13:51:28.866Z,16.10
2019-02-07T13:54:02.826Z,16.47
2019-02-07T13:56:36.686Z,17.37
2019-02-07T13:59:10.432Z,16.27
2019-02-07T14:01:44.096Z,19.43
2019-02-07T14:04:17.964Z,19.33
2019-02-07T14:06:52.108Z,16.83
2019-02-07T14:09:25.821Z,15.47
2019-02-07T14:11:59.451Z,15.23
2019-02-07T14:14:33.285Z,17.97
2019-02-07T14:17:07.007Z,17.20
2019-02-07T14:19:41.621Z,14.83
2019-02-07T14:22:15.481Z,18.07
2019-02-07T14:24:50.091Z,18.57
2019-02-07T14:27:23.873Z,18.97
2019-02-07T14:29:57.637Z,16.30
2019-02-07T14:32:31.509Z,19.07
2019-02-07T14:35:05.309Z,16.83
2019-02-07T14:37:38.989Z,15.47
2019-02-07T14:40:12.625Z,13.90
2019-02-07T14:42:46.648Z,14.27
2019-02-07T14:45:20.560Z,16.67
2019-02-07T14:47:54.640Z,14.90
2019-02-07T14:50:28.333Z,15.40
2019-02-07T14:53:02.945Z,16.77
2019-02-07T14:55:37.728Z,16.07
2019-02-07T14:58:13.062Z,15.10
2019-02-07T15:00:46.864Z,14.87
2019-02-07T15:03:20.725Z,18.13
2019-02-07T15:05:55.381Z,17.57
2019-02-07T15:08:29.162Z,17.70
2019-02-07T15:11:03.074Z,16.53
2019-02-07T15:13:36.732Z,17.73
2019-02-07T15:16:10.656Z,16.37
2019-02-07T15:18:46.188Z,16.40
2019-02-07T15:21:18.125Z,21.17
2019-02-07T15:23:52.242Z,18.70
2019-02-07T15:26:25.905Z,16.70
2019-02-07T15:28:59.818Z,12.73
2019-02-07T15:31:33.672Z,16.77
2019-02-07T15:34:08.224Z,15.87
2019-02-07T15:36:42.013Z,14.17
2019-02-07T15:39:16.226Z,17.60
2019-02-07T15:41:50.158Z,19.70
2019-02-07T15:44:24.641Z,14.97
2019-02-07T15:46:58.449Z,13.23
2019-02-07T15:49:33.337Z,14.80
2019-02-07T15:52:07.121Z,15.63
2019-02-07T15:54:40.768Z,13.27
2019-02-07T15:57:14.564Z,17.43
2019-02-07T15:59:48.278Z,14.47
2019-02-07T16:02:22.016Z,12.23
2019-02-07T16:04:55.730Z,13.90
2019-02-07T16:07:29.750Z,16.07
2019-02-07T16:10:03.397Z,17.63
2019-02-07T16:12:37.098Z,11.57
2019-02-07T16:15:11.137Z,13.30
2019-02-07T16:17:44.897Z,15.23
2019-02-07T16:20:19.441Z,11.37
2019-02-07T16:22:53.133Z,17.50
2019-02-07T16:25:27.568Z,13.20
2019-02-07T16:28:02.096Z,13.17
2019-02-07T16:30:35.752Z,14.50
2019-02-07T16:33:09.397Z,17.70
2019-02-07T16:35:43.214Z,13.20
2019-02-07T16:38:16.885Z,12.43
2019-02-07T16:40:50.780Z,13.77
2019-02-07T16:43:24.445Z,15.17
2019-02-07T16:45:58.198Z,15.67
2019-02-07T16:48:31.933Z,14.40
2019-02-07T16:51:05.780Z,17.80
2019-02-07T16:53:39.461Z,13.63
2019-02-07T16:56:13.201Z,12.83
2019-02-07T16:58:46.921Z,10.10
2019-02-07T17:01:20.672Z,16.90
2019-02-07T17:03:54.477Z,15.93
2019-02-07T17:06:29.125Z,16.37
2019-02-07T17:09:02.872Z,17.70
2019-02-07T17:11:36.604Z,17.23
2019-02-07T17:14:10.405Z,16.10
2019-02-07T17:16:44.166Z,12.07
2019-02-07T17:19:18.091Z,13.83
2019-02-07T17:21:51.900Z,16.53
2019-02-07T17:24:25.551Z,12.00
2019-02-07T17:27:00.110Z,15.53
2019-02-07T17:29:34.536Z,13.63
2019-02-07T17:32:08.256Z,15.83
2019-02-07T17:34:42.773Z,15.03
2019-02-07T17:37:16.525Z,19.43
2019-02-07T17:39:50.328Z,14.33
2019-02-07T17:42:24.945Z,14.37
2019-02-07T17:44:58.701Z,14.80
2019-02-07T17:47:32.402Z,14.77
2019-02-07T17:50:10.457Z,16.10
2019-02-07T17:52:44.117Z,11.03
2019-02-07T17:55:18.853Z,16.37
2019-02-07T17:57:52.514Z,15.00
2019-02-07T18:00:27.113Z,15.80
2019-02-07T18:03:00.871Z,14.33
2019-02-07T18:05:34.532Z,13.03
2019-02-07T18:08:08.376Z,12.23
2019-02-07T18:10:42.017Z,14.43
2019-02-07T18:13:15.762Z,13.97
2019-02-07T18:15:50.259Z,14.70
2019-02-07T18:18:24.000Z,12.03
2019-02-07T18:20:57.687Z,13.73
2019-02-07T18:23:31.513Z,14.57
2019-02-07T18:26:05.272Z,13.50
2019-02-07T18:28:39.009Z,14.23
2019-02-07T18:31:12.784Z,14.90
2019-02-07T18:33:46.505Z,14.00
2019-02-07T18:36:20.217Z,14.93
2019-02-07T18:38:53.962Z,10.83
2019-02-07T18:41:27.610Z,11.77
2019-02-07T18:44:01.388Z,14.80
2019-02-07T18:46:35.084Z,13.93
2019-02-07T18:49:08.816Z,12.10
2019-02-07T18:51:45.728Z,16.07
2019-02-07T18:54:50.434Z,14.87
2019-02-07T18:57:25.005Z,13.07
2019-02-07T18:59:58.756Z,12.90
2019-02-07T19:02:32.489Z,16.93
2019-02-07T19:05:06.260Z,14.90
2019-02-07T19:07:40.069Z,16.47
2019-02-07T19:10:14.650Z,15.53
2019-02-07T19:12:48.249Z,11.47
2019-02-07T19:15:29.705Z,14.87
2019-02-07T19:18:03.486Z,18.63
2019-02-07T19:20:37.322Z,14.33
2019-02-07T19:23:11.117Z,17.60
2019-02-07T19:25:44.847Z,14.93
2019-02-07T19:28:18.565Z,18.17
2019-02-07T19:30:53.150Z,15.53
2019-02-07T19:33:26.881Z,14.83
2019-02-07T19:36:00.699Z,14.33
2019-02-07T19:38:35.261Z,15.33
2019-02-07T19:41:09.673Z,15.03
2019-02-07T19:43:45.434Z,15.77
2019-02-07T19:46:17.824Z,13.53
2019-02-07T19:48:51.544Z,15.63
2019-02-07T19:51:25.279Z,15.00
2019-02-07T19:53:59.193Z,15.87
2019-02-07T19:56:33.672Z,14.23
2019-02-07T19:59:07.400Z,13.43
2019-02-07T20:01:41.089Z,11.33
2019-02-07T20:04:15.613Z,11.07
2019-02-07T20:06:49.362Z,12.27
2019-02-07T20:09:23.117Z,11.60
2019-02-07T20:11:57.669Z,12.67
2019-02-07T20:14:31.445Z,13.03
2019-02-07T20:17:05.098Z,13.10
2019-02-07T20:19:38.836Z,12.73
2019-02-07T20:22:19.737Z,16.20
2019-02-07T20:24:46.404Z,13.47
2019-02-07T20:27:20.020Z,13.27
2019-02-07T20:29:53.654Z,18.57
2019-02-07T20:32:27.353Z,14.73
2019-02-07T20:35:01.684Z,19.47
2019-02-07T20:37:35.546Z,15.97
2019-02-07T20:40:09.409Z,12.97
2019-02-07T20:42:43.277Z,14.13
2019-02-07T20:45:17.088Z,13.27
2019-02-07T20:47:51.525Z,11.97
2019-02-07T20:50:25.217Z,12.67
2019-02-07T20:52:58.951Z,17.70
2019-02-07T20:55:33.529Z,21.77
2019-02-07T20:58:07.286Z,14.60
2019-02-07T21:00:40.994Z,15.27
2019-02-07T21:03:14.765Z,10.30
2019-02-07T21:05:48.660Z,14.77
2019-02-07T21:08:22.568Z,13.13
2019-02-07T21:10:56.205Z,14.03
2019-02-07T21:13:30.017Z,15.57
2019-02-07T21:16:03.625Z,16.07
2019-02-07T21:18:38.432Z,11.73
2019-02-07T21:21:12.154Z,14.57
2019-02-07T21:23:45.937Z,14.13
2019-02-07T21:26:20.569Z,18.20
2019-02-07T21:28:54.396Z,12.70
2019-02-07T21:31:28.896Z,11.53
2019-02-07T21:34:02.675Z,14.50
2019-02-07T21:36:36.428Z,17.90
2019-02-07T21:39:10.233Z,15.87
2019-02-07T21:41:44.117Z,14.50
2019-02-07T21:44:17.996Z,16.00
2019-02-07T21:46:51.780Z,12.17
2019-02-07T21:49:26.347Z,13.43
2019-02-07T21:52:00.885Z,13.00
2019-02-07T21:54:34.563Z,14.70
2019-02-07T21:57:08.264Z,13.37
2019-02-07T21:59:42.244Z,13.33
2019-02-07T22:02:15.977Z,9.50
2019-02-07T22:04:50.540Z,11.23
2019-02-07T22:07:25.053Z,12.23
2019-02-07T22:09:58.724Z,13.97
2019-02-07T22:12:32.372Z,9.83
2019-02-07T22:15:07.880Z,9.43
2019-02-07T22:17:41.496Z,9.20
2019-02-07T22:20:20.065Z,12.73
2019-02-07T22:22:53.717Z,12.93
2019-02-07T22:25:36.259Z,14.07
2019-02-07T22:28:09.827Z,9.83
2019-02-07T22:30:44.432Z,10.60
2019-02-07T22:33:18.796Z,15.10
2019-02-07T22:35:52.745Z,10.33
2019-02-07T22:38:26.433Z,12.20
2019-02-07T22:41:00.838Z,12.20
2019-02-07T22:43:34.556Z,8.80
2019-02-07T22:46:08.360Z,8.30
2019-02-07T22:48:42.057Z,8.93
2019-02-07T22:51:15.836Z,10.90
2019-02-07T22:53:49.592Z,11.17
2019-02-07T22:56:23.468Z,8.73
2019-02-07T22:58:57.234Z,12.43
2019-02-07T23:01:30.924Z,9.83
2019-02-07T23:04:04.648Z,12.00
2019-02-07T23:06:38.423Z,7.43
2019-02-07T23:09:12.157Z,8.10
2019-02-07T23:11:46.628Z,10.17
2019-02-07T23:14:20.332Z,9.67
2019-02-07T23:16:54.016Z,9.53
2019-02-07T23:19:27.717Z,8.83
2019-02-07T23:22:01.529Z,8.57
2019-02-07T23:24:35.341Z,9.50
2019-02-07T23:27:09.056Z,9.20
2019-02-07T23:29:42.897Z,11.30
2019-02-07T23:32:16.641Z,10.73
2019-02-07T23:34:51.168Z,7.50
2019-02-07T23:37:25.040Z,9.07
2019-02-07T23:39:58.768Z,10.80
2019-02-07T23:42:32.360Z,7.00
2019-02-07T23:45:06.101Z,8.60
2019-02-07T23:47:39.841Z,8.37
2019-02-07T23:50:13.602Z,10.00
2019-02-07T23:52:47.298Z,6.60
2019-02-07T23:55:21.040Z,9.23
2019-02-07T23:57:55.485Z,6.67
